sensor_id;sensor_type;location;lat;lon;timestamp;P1;durP1;ratioP1;P2;durP2;ratioP2
65717;SDS011;52445;52.466;-1.016;2022-07-18T00:00:16;3.53;;;1.80;;
65717;SDS011;52445;52.466;-1.016;2022-07-18T00:02:43;4.35;;;2.22;;
65717;SDS011;52445;52.466;-1.016;2022-07-18T00:05:09;3.63;;;2.08;;
65717;SDS011;52445;52.466;-1.016;2022-07-18T00:07:36;5.13;;;2.22;;
65717;SDS011;52445;52.466;-1.016;2022-07-18T00:10:03;4.72;;;2.13;;
65717;SDS011;52445;52.466;-1.016;2022-07-18T00:12:31;4.20;;;2.15;;
65717;SDS011;52445;52.466;-1.016;2022-07-18T00:14:57;3.70;;;1.90;;
65717;SDS011;52445;52.466;-1.016;2022-07-18T00:17:24;4.50;;;1.90;;
65717;SDS011;52445;52.466;-1.016;2022-07-18T00:19:51;5.10;;;2.40;;
65717;SDS011;52445;52.466;-1.016;2022-07-18T00:22:18;4.72;;;2.25;;
65717;SDS011;52445;52.466;-1.016;2022-07-18T00:24:45;4.53;;;2.10;;
65717;SDS011;52445;52.466;-1.016;2022-07-18T00:27:12;4.22;;;2.22;;
65717;SDS011;52445;52.466;-1.016;2022-07-18T00:29:38;3.63;;;2.17;;
65717;SDS011;52445;52.466;-1.016;2022-07-18T00:32:06;5.18;;;2.08;;
65717;SDS011;52445;52.466;-1.016;2022-07-18T00:34:34;3.58;;;1.90;;
65717;SDS011;52445;52.466;-1.016;2022-07-18T00:37:01;4.38;;;1.92;;
65717;SDS011;52445;52.466;-1.016;2022-07-18T00:39:30;3.90;;;2.00;;
65717;SDS011;52445;52.466;-1.016;2022-07-18T00:41:57;4.82;;;2.38;;
65717;SDS011;52445;52.466;-1.016;2022-07-18T00:44:25;4.22;;;2.00;;
65717;SDS011;52445;52.466;-1.016;2022-07-18T00:46:52;3.45;;;2.17;;
65717;SDS011;52445;52.466;-1.016;2022-07-18T00:49:21;4.05;;;1.98;;
65717;SDS011;52445;52.466;-1.016;2022-07-18T00:51:48;6.78;;;2.25;;
65717;SDS011;52445;52.466;-1.016;2022-07-18T00:54:15;4.70;;;2.13;;
65717;SDS011;52445;52.466;-1.016;2022-07-18T00:56:43;3.97;;;1.83;;
65717;SDS011;52445;52.466;-1.016;2022-07-18T00:59:11;4.07;;;2.10;;
65717;SDS011;52445;52.466;-1.016;2022-07-18T01:01:38;4.25;;;2.00;;
65717;SDS011;52445;52.466;-1.016;2022-07-18T01:04:09;3.70;;;1.70;;
65717;SDS011;52445;52.466;-1.016;2022-07-18T01:06:38;4.00;;;1.80;;
65717;SDS011;52445;52.466;-1.016;2022-07-18T01:09:06;4.82;;;1.77;;
65717;SDS011;52445;52.466;-1.016;2022-07-18T01:11:33;3.85;;;2.00;;
65717;SDS011;52445;52.466;-1.016;2022-07-18T01:14:01;4.13;;;2.00;;
65717;SDS011;52445;52.466;-1.016;2022-07-18T01:16:29;3.67;;;1.63;;
65717;SDS011;52445;52.466;-1.016;2022-07-18T01:18:57;4.65;;;2.33;;
65717;SDS011;52445;52.466;-1.016;2022-07-18T01:21:23;4.55;;;2.30;;
65717;SDS011;52445;52.466;-1.016;2022-07-18T01:23:50;4.05;;;1.98;;
65717;SDS011;52445;52.466;-1.016;2022-07-18T01:26:17;4.60;;;2.05;;
65717;SDS011;52445;52.466;-1.016;2022-07-18T01:28:46;4.70;;;2.67;;
65717;SDS011;52445;52.466;-1.016;2022-07-18T01:31:13;6.10;;;2.20;;
65717;SDS011;52445;52.466;-1.016;2022-07-18T01:33:40;8.30;;;1.90;;
65717;SDS011;52445;52.466;-1.016;2022-07-18T01:36:07;3.33;;;2.00;;
65717;SDS011;52445;52.466;-1.016;2022-07-18T01:38:34;5.13;;;2.25;;
65717;SDS011;52445;52.466;-1.016;2022-07-18T01:41:03;3.85;;;1.92;;
65717;SDS011;52445;52.466;-1.016;2022-07-18T01:43:30;4.63;;;1.88;;
65717;SDS011;52445;52.466;-1.016;2022-07-18T01:45:57;5.88;;;2.17;;
65717;SDS011;52445;52.466;-1.016;2022-07-18T01:48:24;4.25;;;1.90;;
65717;SDS011;52445;52.466;-1.016;2022-07-18T01:50:51;5.20;;;2.50;;
65717;SDS011;52445;52.466;-1.016;2022-07-18T01:53:18;5.28;;;2.05;;
65717;SDS011;52445;52.466;-1.016;2022-07-18T01:55:45;5.45;;;2.22;;
65717;SDS011;52445;52.466;-1.016;2022-07-18T01:58:12;4.85;;;2.50;;
65717;SDS011;52445;52.466;-1.016;2022-07-18T02:00:39;5.18;;;2.63;;
65717;SDS011;52445;52.466;-1.016;2022-07-18T02:03:12;3.78;;;2.10;;
65717;SDS011;52445;52.466;-1.016;2022-07-18T02:05:39;4.50;;;2.40;;
65717;SDS011;52445;52.466;-1.016;2022-07-18T02:08:06;4.97;;;2.33;;
65717;SDS011;52445;52.466;-1.016;2022-07-18T02:10:32;4.50;;;1.98;;
65717;SDS011;52445;52.466;-1.016;2022-07-18T02:12:59;4.78;;;2.30;;
65717;SDS011;52445;52.466;-1.016;2022-07-18T02:15:26;5.05;;;2.30;;
65717;SDS011;52445;52.466;-1.016;2022-07-18T02:17:53;3.33;;;1.90;;
65717;SDS011;52445;52.466;-1.016;2022-07-18T02:20:19;4.45;;;2.00;;
65717;SDS011;52445;52.466;-1.016;2022-07-18T02:22:46;5.30;;;2.75;;
65717;SDS011;52445;52.466;-1.016;2022-07-18T02:25:13;5.13;;;2.42;;
65717;SDS011;52445;52.466;-1.016;2022-07-18T02:27:40;4.78;;;2.25;;
65717;SDS011;52445;52.466;-1.016;2022-07-18T02:30:07;5.47;;;2.58;;
65717;SDS011;52445;52.466;-1.016;2022-07-18T02:32:37;4.95;;;2.40;;
65717;SDS011;52445;52.466;-1.016;2022-07-18T02:35:05;3.90;;;2.03;;
65717;SDS011;52445;52.466;-1.016;2022-07-18T02:37:33;4.72;;;2.17;;
65717;SDS011;52445;52.466;-1.016;2022-07-18T02:39:59;4.78;;;1.95;;
65717;SDS011;52445;52.466;-1.016;2022-07-18T02:42:26;4.50;;;2.33;;
65717;SDS011;52445;52.466;-1.016;2022-07-18T02:44:53;4.25;;;2.45;;
65717;SDS011;52445;52.466;-1.016;2022-07-18T02:47:20;5.88;;;2.35;;
65717;SDS011;52445;52.466;-1.016;2022-07-18T02:49:47;4.63;;;2.25;;
65717;SDS011;52445;52.466;-1.016;2022-07-18T02:52:13;4.80;;;2.08;;
65717;SDS011;52445;52.466;-1.016;2022-07-18T02:54:40;4.85;;;2.53;;
65717;SDS011;52445;52.466;-1.016;2022-07-18T02:57:07;5.18;;;2.35;;
65717;SDS011;52445;52.466;-1.016;2022-07-18T02:59:33;4.22;;;2.13;;
65717;SDS011;52445;52.466;-1.016;2022-07-18T03:02:00;4.85;;;2.53;;
65717;SDS011;52445;52.466;-1.016;2022-07-18T03:04:27;4.32;;;2.22;;
65717;SDS011;52445;52.466;-1.016;2022-07-18T03:06:54;6.03;;;1.90;;
65717;SDS011;52445;52.466;-1.016;2022-07-18T03:09:20;4.35;;;2.20;;
65717;SDS011;52445;52.466;-1.016;2022-07-18T03:11:48;6.07;;;3.05;;
65717;SDS011;52445;52.466;-1.016;2022-07-18T03:14:14;4.47;;;2.10;;
65717;SDS011;52445;52.466;-1.016;2022-07-18T03:16:41;5.22;;;2.28;;
65717;SDS011;52445;52.466;-1.016;2022-07-18T03:19:08;6.68;;;2.50;;
65717;SDS011;52445;52.466;-1.016;2022-07-18T03:21:34;4.63;;;2.33;;
65717;SDS011;52445;52.466;-1.016;2022-07-18T03:24:01;4.20;;;2.00;;
65717;SDS011;52445;52.466;-1.016;2022-07-18T03:26:28;4.88;;;2.20;;
65717;SDS011;52445;52.466;-1.016;2022-07-18T03:28:55;5.65;;;2.33;;
65717;SDS011;52445;52.466;-1.016;2022-07-18T03:31:22;4.40;;;2.08;;
65717;SDS011;52445;52.466;-1.016;2022-07-18T03:33:48;5.82;;;2.33;;
65717;SDS011;52445;52.466;-1.016;2022-07-18T03:36:15;5.03;;;2.13;;
65717;SDS011;52445;52.466;-1.016;2022-07-18T03:38:43;4.15;;;1.80;;
65717;SDS011;52445;52.466;-1.016;2022-07-18T03:41:10;4.63;;;1.80;;
65717;SDS011;52445;52.466;-1.016;2022-07-18T03:43:37;3.83;;;1.80;;
65717;SDS011;52445;52.466;-1.016;2022-07-18T03:46:05;4.60;;;2.15;;
65717;SDS011;52445;52.466;-1.016;2022-07-18T03:48:32;4.47;;;2.22;;
65717;SDS011;52445;52.466;-1.016;2022-07-18T03:51:00;3.92;;;2.15;;
65717;SDS011;52445;52.466;-1.016;2022-07-18T03:53:27;4.85;;;2.00;;
65717;SDS011;52445;52.466;-1.016;2022-07-18T03:55:54;4.22;;;2.25;;
65717;SDS011;52445;52.466;-1.016;2022-07-18T03:58:21;4.43;;;2.22;;
65717;SDS011;52445;52.466;-1.016;2022-07-18T04:00:47;4.25;;;2.17;;
65717;SDS011;52445;52.466;-1.016;2022-07-18T04:03:15;4.05;;;1.85;;
65717;SDS011;52445;52.466;-1.016;2022-07-18T04:05:43;5.72;;;2.47;;
65717;SDS011;52445;52.466;-1.016;2022-07-18T04:08:10;4.47;;;1.95;;
65717;SDS011;52445;52.466;-1.016;2022-07-18T04:10:36;4.82;;;2.33;;
65717;SDS011;52445;52.466;-1.016;2022-07-18T04:13:06;5.63;;;2.03;;
65717;SDS011;52445;52.466;-1.016;2022-07-18T04:15:34;4.45;;;2.40;;
65717;SDS011;52445;52.466;-1.016;2022-07-18T04:18:01;4.80;;;2.20;;
65717;SDS011;52445;52.466;-1.016;2022-07-18T04:20:28;5.22;;;2.20;;
65717;SDS011;52445;52.466;-1.016;2022-07-18T04:22:56;4.78;;;2.17;;
65717;SDS011;52445;52.466;-1.016;2022-07-18T04:25:26;5.13;;;2.42;;
65717;SDS011;52445;52.466;-1.016;2022-07-18T04:27:54;5.05;;;2.60;;
65717;SDS011;52445;52.466;-1.016;2022-07-18T04:30:22;4.15;;;2.13;;
65717;SDS011;52445;52.466;-1.016;2022-07-18T04:32:50;8.05;;;2.47;;
65717;SDS011;52445;52.466;-1.016;2022-07-18T04:35:19;5.70;;;2.65;;
65717;SDS011;52445;52.466;-1.016;2022-07-18T04:37:47;5.85;;;2.63;;
65717;SDS011;52445;52.466;-1.016;2022-07-18T04:40:14;5.40;;;2.60;;
65717;SDS011;52445;52.466;-1.016;2022-07-18T04:42:42;5.25;;;2.65;;
65717;SDS011;52445;52.466;-1.016;2022-07-18T04:45:09;6.78;;;2.30;;
65717;SDS011;52445;52.466;-1.016;2022-07-18T04:47:36;5.55;;;2.20;;
65717;SDS011;52445;52.466;-1.016;2022-07-18T04:50:04;6.32;;;2.85;;
65717;SDS011;52445;52.466;-1.016;2022-07-18T04:52:39;4.13;;;2.05;;
65717;SDS011;52445;52.466;-1.016;2022-07-18T04:55:08;4.90;;;2.60;;
65717;SDS011;52445;52.466;-1.016;2022-07-18T04:57:36;8.02;;;2.03;;
65717;SDS011;52445;52.466;-1.016;2022-07-18T05:00:04;6.03;;;2.75;;
65717;SDS011;52445;52.466;-1.016;2022-07-18T05:02:33;7.53;;;2.28;;
65717;SDS011;52445;52.466;-1.016;2022-07-18T05:05:00;6.13;;;2.10;;
65717;SDS011;52445;52.466;-1.016;2022-07-18T05:07:27;3.78;;;2.03;;
65717;SDS011;52445;52.466;-1.016;2022-07-18T05:09:54;5.43;;;2.75;;
65717;SDS011;52445;52.466;-1.016;2022-07-18T05:12:21;4.70;;;2.38;;
65717;SDS011;52445;52.466;-1.016;2022-07-18T05:14:50;5.20;;;2.40;;
65717;SDS011;52445;52.466;-1.016;2022-07-18T05:17:27;4.90;;;2.50;;
65717;SDS011;52445;52.466;-1.016;2022-07-18T05:19:54;5.63;;;2.20;;
65717;SDS011;52445;52.466;-1.016;2022-07-18T05:22:21;5.10;;;2.63;;
65717;SDS011;52445;52.466;-1.016;2022-07-18T05:24:49;5.05;;;2.30;;
65717;SDS011;52445;52.466;-1.016;2022-07-18T05:27:16;6.38;;;2.65;;
65717;SDS011;52445;52.466;-1.016;2022-07-18T05:29:43;6.20;;;2.17;;
65717;SDS011;52445;52.466;-1.016;2022-07-18T05:32:10;5.78;;;2.53;;
65717;SDS011;52445;52.466;-1.016;2022-07-18T05:34:41;5.00;;;2.13;;
65717;SDS011;52445;52.466;-1.016;2022-07-18T05:37:07;7.90;;;2.60;;
65717;SDS011;52445;52.466;-1.016;2022-07-18T05:39:34;4.93;;;2.20;;
65717;SDS011;52445;52.466;-1.016;2022-07-18T05:42:02;10.93;;;3.33;;
65717;SDS011;52445;52.466;-1.016;2022-07-18T05:44:29;5.05;;;2.50;;
65717;SDS011;52445;52.466;-1.016;2022-07-18T05:46:56;5.45;;;2.72;;
65717;SDS011;52445;52.466;-1.016;2022-07-18T05:49:23;6.90;;;2.28;;
65717;SDS011;52445;52.466;-1.016;2022-07-18T05:51:49;4.80;;;2.33;;
65717;SDS011;52445;52.466;-1.016;2022-07-18T05:54:18;5.38;;;2.60;;
65717;SDS011;52445;52.466;-1.016;2022-07-18T05:56:47;7.45;;;2.25;;
65717;SDS011;52445;52.466;-1.016;2022-07-18T05:59:15;6.15;;;2.75;;
65717;SDS011;52445;52.466;-1.016;2022-07-18T06:01:42;5.07;;;2.30;;
65717;SDS011;52445;52.466;-1.016;2022-07-18T06:04:09;4.97;;;2.22;;
65717;SDS011;52445;52.466;-1.016;2022-07-18T06:06:36;5.88;;;2.38;;
65717;SDS011;52445;52.466;-1.016;2022-07-18T06:09:03;5.00;;;2.55;;
65717;SDS011;52445;52.466;-1.016;2022-07-18T06:11:30;5.63;;;2.72;;
65717;SDS011;52445;52.466;-1.016;2022-07-18T06:13:58;10.85;;;2.55;;
65717;SDS011;52445;52.466;-1.016;2022-07-18T06:16:25;11.93;;;2.53;;
65717;SDS011;52445;52.466;-1.016;2022-07-18T06:18:51;7.15;;;2.70;;
65717;SDS011;52445;52.466;-1.016;2022-07-18T06:21:18;12.40;;;2.53;;
65717;SDS011;52445;52.466;-1.016;2022-07-18T06:23:45;16.67;;;2.50;;
65717;SDS011;52445;52.466;-1.016;2022-07-18T06:26:11;17.48;;;2.55;;
65717;SDS011;52445;52.466;-1.016;2022-07-18T06:28:38;9.70;;;2.13;;
65717;SDS011;52445;52.466;-1.016;2022-07-18T06:31:12;4.88;;;2.30;;
65717;SDS011;52445;52.466;-1.016;2022-07-18T06:33:42;6.85;;;2.40;;
65717;SDS011;52445;52.466;-1.016;2022-07-18T06:36:09;7.45;;;2.80;;
65717;SDS011;52445;52.466;-1.016;2022-07-18T06:38:38;5.68;;;2.33;;
65717;SDS011;52445;52.466;-1.016;2022-07-18T06:41:06;5.53;;;2.28;;
65717;SDS011;52445;52.466;-1.016;2022-07-18T06:43:37;7.18;;;2.42;;
65717;SDS011;52445;52.466;-1.016;2022-07-18T06:46:04;5.60;;;2.53;;
65717;SDS011;52445;52.466;-1.016;2022-07-18T06:48:32;8.20;;;2.25;;
65717;SDS011;52445;52.466;-1.016;2022-07-18T06:51:02;13.48;;;3.03;;
65717;SDS011;52445;52.466;-1.016;2022-07-18T06:53:32;8.13;;;2.28;;
65717;SDS011;52445;52.466;-1.016;2022-07-18T06:55:59;8.10;;;2.38;;
65717;SDS011;52445;52.466;-1.016;2022-07-18T06:58:29;8.55;;;2.50;;
65717;SDS011;52445;52.466;-1.016;2022-07-18T07:00:57;6.65;;;2.67;;
65717;SDS011;52445;52.466;-1.016;2022-07-18T07:03:24;5.18;;;2.42;;
65717;SDS011;52445;52.466;-1.016;2022-07-18T07:05:51;10.20;;;2.80;;
65717;SDS011;52445;52.466;-1.016;2022-07-18T07:08:17;6.43;;;2.47;;
65717;SDS011;52445;52.466;-1.016;2022-07-18T07:10:44;13.35;;;2.55;;
65717;SDS011;52445;52.466;-1.016;2022-07-18T07:13:11;9.63;;;2.25;;
65717;SDS011;52445;52.466;-1.016;2022-07-18T07:15:43;9.52;;;2.40;;
65717;SDS011;52445;52.466;-1.016;2022-07-18T07:18:10;4.53;;;2.55;;
65717;SDS011;52445;52.466;-1.016;2022-07-18T07:20:37;8.48;;;2.80;;
65717;SDS011;52445;52.466;-1.016;2022-07-18T07:23:03;4.90;;;2.65;;
65717;SDS011;52445;52.466;-1.016;2022-07-18T07:25:33;4.78;;;2.40;;
65717;SDS011;52445;52.466;-1.016;2022-07-18T07:28:01;5.07;;;2.55;;
65717;SDS011;52445;52.466;-1.016;2022-07-18T07:30:28;5.78;;;2.83;;
65717;SDS011;52445;52.466;-1.016;2022-07-18T07:32:55;4.63;;;2.40;;
65717;SDS011;52445;52.466;-1.016;2022-07-18T07:35:22;5.35;;;2.92;;
65717;SDS011;52445;52.466;-1.016;2022-07-18T07:37:50;3.80;;;2.63;;
65717;SDS011;52445;52.466;-1.016;2022-07-18T07:40:20;9.60;;;2.63;;
65717;SDS011;52445;52.466;-1.016;2022-07-18T07:42:48;7.13;;;2.47;;
65717;SDS011;52445;52.466;-1.016;2022-07-18T07:45:14;4.63;;;3.03;;
65717;SDS011;52445;52.466;-1.016;2022-07-18T07:47:42;4.88;;;2.50;;
65717;SDS011;52445;52.466;-1.016;2022-07-18T07:50:09;5.63;;;2.45;;
65717;SDS011;52445;52.466;-1.016;2022-07-18T07:52:37;4.82;;;2.40;;
65717;SDS011;52445;52.466;-1.016;2022-07-18T07:55:05;9.18;;;3.00;;
65717;SDS011;52445;52.466;-1.016;2022-07-18T07:57:32;5.78;;;2.85;;
65717;SDS011;52445;52.466;-1.016;2022-07-18T08:00:04;8.43;;;2.28;;
65717;SDS011;52445;52.466;-1.016;2022-07-18T08:02:32;6.65;;;2.03;;
65717;SDS011;52445;52.466;-1.016;2022-07-18T08:04:59;10.30;;;2.55;;
65717;SDS011;52445;52.466;-1.016;2022-07-18T08:07:26;3.45;;;2.30;;
65717;SDS011;52445;52.466;-1.016;2022-07-18T08:09:52;5.80;;;2.50;;
65717;SDS011;52445;52.466;-1.016;2022-07-18T08:12:19;5.68;;;2.40;;
65717;SDS011;52445;52.466;-1.016;2022-07-18T08:14:45;5.63;;;2.80;;
65717;SDS011;52445;52.466;-1.016;2022-07-18T08:17:12;10.60;;;3.38;;
65717;SDS011;52445;52.466;-1.016;2022-07-18T08:19:39;4.47;;;2.33;;
65717;SDS011;52445;52.466;-1.016;2022-07-18T08:22:05;8.80;;;3.15;;
65717;SDS011;52445;52.466;-1.016;2022-07-18T08:24:32;6.57;;;2.33;;
65717;SDS011;52445;52.466;-1.016;2022-07-18T08:26:59;4.65;;;2.63;;
65717;SDS011;52445;52.466;-1.016;2022-07-18T08:29:26;9.23;;;2.78;;
65717;SDS011;52445;52.466;-1.016;2022-07-18T08:32:12;5.25;;;2.50;;
65717;SDS011;52445;52.466;-1.016;2022-07-18T08:34:39;6.25;;;2.30;;
65717;SDS011;52445;52.466;-1.016;2022-07-18T08:37:06;5.55;;;2.55;;
65717;SDS011;52445;52.466;-1.016;2022-07-18T08:39:33;7.47;;;2.65;;
65717;SDS011;52445;52.466;-1.016;2022-07-18T08:42:00;4.65;;;2.55;;
65717;SDS011;52445;52.466;-1.016;2022-07-18T08:44:27;8.82;;;3.22;;
65717;SDS011;52445;52.466;-1.016;2022-07-18T08:46:54;12.27;;;2.40;;
65717;SDS011;52445;52.466;-1.016;2022-07-18T08:49:23;4.97;;;2.40;;
65717;SDS011;52445;52.466;-1.016;2022-07-18T08:51:50;8.85;;;2.40;;
65717;SDS011;52445;52.466;-1.016;2022-07-18T08:54:17;6.45;;;2.38;;
65717;SDS011;52445;52.466;-1.016;2022-07-18T08:56:48;5.18;;;2.45;;
65717;SDS011;52445;52.466;-1.016;2022-07-18T08:59:15;5.65;;;2.45;;
65717;SDS011;52445;52.466;-1.016;2022-07-18T09:01:41;6.90;;;2.83;;
65717;SDS011;52445;52.466;-1.016;2022-07-18T09:04:08;5.38;;;2.97;;
65717;SDS011;52445;52.466;-1.016;2022-07-18T09:09:12;6.43;;;2.45;;
65717;SDS011;52445;52.466;-1.016;2022-07-18T09:11:56;3.45;;;2.35;;
65717;SDS011;52445;52.466;-1.016;2022-07-18T09:14:29;4.13;;;2.53;;
65717;SDS011;52445;52.466;-1.016;2022-07-18T09:17:13;4.90;;;2.80;;
65717;SDS011;52445;52.466;-1.016;2022-07-18T09:20:08;5.72;;;3.08;;
65717;SDS011;52445;52.466;-1.016;2022-07-18T09:22:46;5.93;;;2.55;;
65717;SDS011;52445;52.466;-1.016;2022-07-18T09:25:15;3.58;;;1.90;;
65717;SDS011;52445;52.466;-1.016;2022-07-18T09:27:44;5.55;;;2.38;;
65717;SDS011;52445;52.466;-1.016;2022-07-18T09:30:15;4.45;;;2.47;;
65717;SDS011;52445;52.466;-1.016;2022-07-18T09:35:41;4.70;;;2.47;;
65717;SDS011;52445;52.466;-1.016;2022-07-18T09:38:10;13.57;;;2.60;;
65717;SDS011;52445;52.466;-1.016;2022-07-18T09:43:08;3.50;;;2.42;;
65717;SDS011;52445;52.466;-1.016;2022-07-18T09:45:38;2.78;;;2.03;;
65717;SDS011;52445;52.466;-1.016;2022-07-18T09:48:09;4.95;;;2.08;;
65717;SDS011;52445;52.466;-1.016;2022-07-18T09:50:38;6.90;;;2.70;;
65717;SDS011;52445;52.466;-1.016;2022-07-18T09:53:12;3.28;;;2.03;;
65717;SDS011;52445;52.466;-1.016;2022-07-18T09:56:01;5.00;;;2.38;;
65717;SDS011;52445;52.466;-1.016;2022-07-18T09:58:31;3.72;;;2.55;;
65717;SDS011;52445;52.466;-1.016;2022-07-18T10:01:00;3.22;;;2.50;;
65717;SDS011;52445;52.466;-1.016;2022-07-18T10:03:29;3.22;;;2.20;;
65717;SDS011;52445;52.466;-1.016;2022-07-18T10:05:57;3.88;;;2.40;;
65717;SDS011;52445;52.466;-1.016;2022-07-18T10:08:26;3.60;;;2.72;;
65717;SDS011;52445;52.466;-1.016;2022-07-18T10:10:56;4.35;;;2.35;;
65717;SDS011;52445;52.466;-1.016;2022-07-18T10:13:26;4.15;;;2.40;;
65717;SDS011;52445;52.466;-1.016;2022-07-18T10:15:54;3.80;;;2.85;;
65717;SDS011;52445;52.466;-1.016;2022-07-18T10:18:23;8.63;;;2.05;;
65717;SDS011;52445;52.466;-1.016;2022-07-18T10:20:53;5.40;;;2.20;;
65717;SDS011;52445;52.466;-1.016;2022-07-18T10:23:34;5.30;;;2.53;;
65717;SDS011;52445;52.466;-1.016;2022-07-18T10:26:18;3.97;;;3.38;;
65717;SDS011;52445;52.466;-1.016;2022-07-18T10:31:31;3.95;;;2.65;;
65717;SDS011;52445;52.466;-1.016;2022-07-18T10:37:06;4.40;;;2.25;;
65717;SDS011;52445;52.466;-1.016;2022-07-18T10:42:18;4.22;;;3.83;;
65717;SDS011;52445;52.466;-1.016;2022-07-18T10:44:47;4.43;;;3.33;;
65717;SDS011;52445;52.466;-1.016;2022-07-18T10:47:14;4.60;;;3.58;;
65717;SDS011;52445;52.466;-1.016;2022-07-18T11:26:30;4.75;;;2.78;;
65717;SDS011;52445;52.466;-1.016;2022-07-18T11:28:58;4.60;;;3.35;;
65717;SDS011;52445;52.466;-1.016;2022-07-18T11:32:02;4.20;;;2.67;;
65717;SDS011;52445;52.466;-1.016;2022-07-18T17:01:33;3.30;;;1.92;;
65717;SDS011;52445;52.466;-1.016;2022-07-18T17:04:09;3.75;;;1.45;;
65717;SDS011;52445;52.466;-1.016;2022-07-18T17:06:36;4.68;;;1.98;;
65717;SDS011;52445;52.466;-1.016;2022-07-18T17:09:02;3.00;;;1.70;;
65717;SDS011;52445;52.466;-1.016;2022-07-18T17:11:29;4.38;;;2.00;;
65717;SDS011;52445;52.466;-1.016;2022-07-18T17:14:03;4.43;;;1.85;;
65717;SDS011;52445;52.466;-1.016;2022-07-18T17:16:30;3.30;;;1.90;;
65717;SDS011;52445;52.466;-1.016;2022-07-18T17:18:58;2.92;;;1.70;;
65717;SDS011;52445;52.466;-1.016;2022-07-18T17:21:25;3.10;;;1.63;;
65717;SDS011;52445;52.466;-1.016;2022-07-18T17:23:52;3.67;;;2.08;;
65717;SDS011;52445;52.466;-1.016;2022-07-18T17:26:21;3.13;;;1.70;;
65717;SDS011;52445;52.466;-1.016;2022-07-18T17:28:49;4.72;;;1.70;;
65717;SDS011;52445;52.466;-1.016;2022-07-18T17:31:17;4.82;;;2.13;;
65717;SDS011;52445;52.466;-1.016;2022-07-18T17:33:45;3.60;;;2.38;;
65717;SDS011;52445;52.466;-1.016;2022-07-18T17:36:12;5.93;;;1.95;;
65717;SDS011;52445;52.466;-1.016;2022-07-18T17:38:40;5.90;;;2.00;;
65717;SDS011;52445;52.466;-1.016;2022-07-18T17:41:07;4.82;;;2.20;;
65717;SDS011;52445;52.466;-1.016;2022-07-18T17:43:39;2.50;;;2.03;;
65717;SDS011;52445;52.466;-1.016;2022-07-18T17:46:09;3.53;;;2.20;;
65717;SDS011;52445;52.466;-1.016;2022-07-18T17:48:37;5.05;;;2.20;;
65717;SDS011;52445;52.466;-1.016;2022-07-18T17:51:04;4.40;;;2.33;;
65717;SDS011;52445;52.466;-1.016;2022-07-18T17:53:32;5.55;;;1.90;;
65717;SDS011;52445;52.466;-1.016;2022-07-18T17:56:00;4.53;;;2.17;;
65717;SDS011;52445;52.466;-1.016;2022-07-18T17:58:27;9.27;;;2.97;;
65717;SDS011;52445;52.466;-1.016;2022-07-18T18:00:54;6.55;;;3.47;;
65717;SDS011;52445;52.466;-1.016;2022-07-18T18:03:20;6.50;;;3.75;;
65717;SDS011;52445;52.466;-1.016;2022-07-18T18:05:47;5.07;;;3.63;;
65717;SDS011;52445;52.466;-1.016;2022-07-18T18:08:14;4.20;;;3.25;;
65717;SDS011;52445;52.466;-1.016;2022-07-18T18:10:42;8.13;;;3.53;;
65717;SDS011;52445;52.466;-1.016;2022-07-18T18:13:09;5.15;;;3.50;;
65717;SDS011;52445;52.466;-1.016;2022-07-18T18:15:36;8.48;;;3.60;;
65717;SDS011;52445;52.466;-1.016;2022-07-18T18:18:02;7.30;;;3.90;;
65717;SDS011;52445;52.466;-1.016;2022-07-18T18:20:29;5.68;;;3.40;;
65717;SDS011;52445;52.466;-1.016;2022-07-18T18:22:56;4.68;;;3.63;;
65717;SDS011;52445;52.466;-1.016;2022-07-18T18:25:24;8.35;;;3.90;;
65717;SDS011;52445;52.466;-1.016;2022-07-18T18:27:51;5.35;;;3.35;;
65717;SDS011;52445;52.466;-1.016;2022-07-18T18:30:18;5.43;;;3.85;;
65717;SDS011;52445;52.466;-1.016;2022-07-18T18:32:44;8.60;;;4.13;;
65717;SDS011;52445;52.466;-1.016;2022-07-18T18:35:12;5.97;;;3.85;;
65717;SDS011;52445;52.466;-1.016;2022-07-18T18:37:38;15.68;;;3.75;;
65717;SDS011;52445;52.466;-1.016;2022-07-18T18:40:05;9.45;;;4.32;;
65717;SDS011;52445;52.466;-1.016;2022-07-18T18:42:35;5.50;;;3.90;;
65717;SDS011;52445;52.466;-1.016;2022-07-18T18:45:04;5.78;;;3.85;;
65717;SDS011;52445;52.466;-1.016;2022-07-18T18:47:34;8.65;;;3.92;;
65717;SDS011;52445;52.466;-1.016;2022-07-18T18:50:01;8.93;;;4.22;;
65717;SDS011;52445;52.466;-1.016;2022-07-18T18:52:28;10.32;;;4.30;;
65717;SDS011;52445;52.466;-1.016;2022-07-18T18:54:54;8.75;;;4.88;;
65717;SDS011;52445;52.466;-1.016;2022-07-18T18:57:21;7.18;;;3.58;;
65717;SDS011;52445;52.466;-1.016;2022-07-18T18:59:47;7.30;;;3.63;;
65717;SDS011;52445;52.466;-1.016;2022-07-18T19:02:14;6.32;;;3.00;;
65717;SDS011;52445;52.466;-1.016;2022-07-18T19:04:41;7.13;;;3.22;;
65717;SDS011;52445;52.466;-1.016;2022-07-18T19:07:08;7.68;;;3.35;;
65717;SDS011;52445;52.466;-1.016;2022-07-18T19:09:36;7.80;;;3.35;;
65717;SDS011;52445;52.466;-1.016;2022-07-18T19:12:03;10.98;;;3.45;;
65717;SDS011;52445;52.466;-1.016;2022-07-18T19:14:30;6.60;;;2.70;;
65717;SDS011;52445;52.466;-1.016;2022-07-18T19:16:56;5.05;;;3.10;;
65717;SDS011;52445;52.466;-1.016;2022-07-18T19:19:23;11.57;;;2.78;;
65717;SDS011;52445;52.466;-1.016;2022-07-18T19:21:50;5.15;;;2.47;;
65717;SDS011;52445;52.466;-1.016;2022-07-18T19:24:16;5.03;;;2.80;;
65717;SDS011;52445;52.466;-1.016;2022-07-18T19:26:43;4.55;;;3.15;;
65717;SDS011;52445;52.466;-1.016;2022-07-18T19:29:10;5.57;;;2.00;;
65717;SDS011;52445;52.466;-1.016;2022-07-18T19:31:37;4.88;;;2.47;;
65717;SDS011;52445;52.466;-1.016;2022-07-18T19:34:08;6.70;;;2.50;;
65717;SDS011;52445;52.466;-1.016;2022-07-18T19:36:35;4.20;;;1.95;;
65717;SDS011;52445;52.466;-1.016;2022-07-18T19:39:02;2.95;;;2.10;;
65717;SDS011;52445;52.466;-1.016;2022-07-18T19:41:32;6.07;;;2.42;;
65717;SDS011;52445;52.466;-1.016;2022-07-18T19:44:00;4.18;;;2.40;;
65717;SDS011;52445;52.466;-1.016;2022-07-18T19:46:26;3.10;;;1.83;;
65717;SDS011;52445;52.466;-1.016;2022-07-18T19:48:53;4.70;;;2.20;;
65717;SDS011;52445;52.466;-1.016;2022-07-18T19:51:22;3.28;;;2.22;;
65717;SDS011;52445;52.466;-1.016;2022-07-18T19:53:48;10.85;;;2.70;;
65717;SDS011;52445;52.466;-1.016;2022-07-18T19:56:15;3.28;;;2.20;;
65717;SDS011;52445;52.466;-1.016;2022-07-18T19:58:42;3.15;;;2.25;;
65717;SDS011;52445;52.466;-1.016;2022-07-18T20:01:09;5.03;;;1.98;;
65717;SDS011;52445;52.466;-1.016;2022-07-18T20:03:35;5.10;;;2.10;;
65717;SDS011;52445;52.466;-1.016;2022-07-18T20:06:02;3.65;;;1.85;;
65717;SDS011;52445;52.466;-1.016;2022-07-18T20:08:35;4.78;;;2.00;;
65717;SDS011;52445;52.466;-1.016;2022-07-18T20:11:01;3.20;;;1.92;;
65717;SDS011;52445;52.466;-1.016;2022-07-18T20:13:28;4.40;;;2.53;;
65717;SDS011;52445;52.466;-1.016;2022-07-18T20:15:55;3.33;;;2.10;;
65717;SDS011;52445;52.466;-1.016;2022-07-18T20:18:22;3.92;;;2.42;;
65717;SDS011;52445;52.466;-1.016;2022-07-18T20:20:48;5.30;;;2.42;;
65717;SDS011;52445;52.466;-1.016;2022-07-18T20:23:15;5.85;;;2.15;;
65717;SDS011;52445;52.466;-1.016;2022-07-18T20:25:42;3.25;;;2.13;;
65717;SDS011;52445;52.466;-1.016;2022-07-18T20:28:08;5.90;;;2.47;;
65717;SDS011;52445;52.466;-1.016;2022-07-18T20:30:35;6.43;;;2.20;;
65717;SDS011;52445;52.466;-1.016;2022-07-18T20:33:04;4.45;;;2.63;;
65717;SDS011;52445;52.466;-1.016;2022-07-18T20:38:00;3.17;;;2.00;;
65717;SDS011;52445;52.466;-1.016;2022-07-18T20:40:27;5.40;;;2.40;;
65717;SDS011;52445;52.466;-1.016;2022-07-18T20:42:55;3.28;;;2.28;;
65717;SDS011;52445;52.466;-1.016;2022-07-18T20:45:21;4.03;;;2.38;;
65717;SDS011;52445;52.466;-1.016;2022-07-18T20:47:50;4.40;;;2.08;;
65717;SDS011;52445;52.466;-1.016;2022-07-18T20:50:18;5.13;;;2.38;;
65717;SDS011;52445;52.466;-1.016;2022-07-18T20:52:44;4.72;;;2.40;;
65717;SDS011;52445;52.466;-1.016;2022-07-18T20:55:12;4.15;;;2.60;;
65717;SDS011;52445;52.466;-1.016;2022-07-18T20:57:38;4.20;;;2.45;;
65717;SDS011;52445;52.466;-1.016;2022-07-18T21:00:12;4.78;;;2.47;;